sensor_id;sensor_type;location;lat;lon;timestamp;P1;durP1;ratioP1;P2;durP2;ratioP2
70216;SDS011;65567;55.684;37.570;2023-07-09T00:01:53;8.75;;;4.35;;
70216;SDS011;65567;55.684;37.570;2023-07-09T00:04:19;7.72;;;3.65;;
70216;SDS011;65567;55.684;37.570;2023-07-09T00:06:45;12.13;;;4.18;;
70216;SDS011;65567;55.684;37.570;2023-07-09T00:09:18;8.57;;;4.70;;
70216;SDS011;65567;55.684;37.570;2023-07-09T00:11:46;11.63;;;4.63;;
70216;SDS011;65567;55.684;37.570;2023-07-09T00:14:13;8.45;;;4.43;;
70216;SDS011;65567;55.684;37.570;2023-07-09T00:16:41;6.93;;;3.72;;
70216;SDS011;65567;55.684;37.570;2023-07-09T00:19:11;10.63;;;4.10;;
70216;SDS011;65567;55.684;37.570;2023-07-09T00:21:40;8.73;;;4.50;;
70216;SDS011;65567;55.684;37.570;2023-07-09T00:24:06;7.40;;;4.53;;
70216;SDS011;65567;55.684;37.570;2023-07-09T00:26:36;7.97;;;4.10;;
70216;SDS011;65567;55.684;37.570;2023-07-09T00:29:03;9.70;;;5.07;;
70216;SDS011;65567;55.684;37.570;2023-07-09T00:31:30;9.70;;;4.90;;
70216;SDS011;65567;55.684;37.570;2023-07-09T00:33:55;9.88;;;5.45;;
70216;SDS011;65567;55.684;37.570;2023-07-09T00:38:54;8.82;;;5.18;;
70216;SDS011;65567;55.684;37.570;2023-07-09T00:41:21;8.48;;;5.25;;
70216;SDS011;65567;55.684;37.570;2023-07-09T00:43:48;8.65;;;4.45;;
70216;SDS011;65567;55.684;37.570;2023-07-09T00:46:17;10.00;;;5.35;;
70216;SDS011;65567;55.684;37.570;2023-07-09T00:48:50;8.32;;;4.97;;
70216;SDS011;65567;55.684;37.570;2023-07-09T00:51:23;10.70;;;5.53;;
70216;SDS011;65567;55.684;37.570;2023-07-09T00:54:10;11.32;;;5.50;;
70216;SDS011;65567;55.684;37.570;2023-07-09T00:56:55;11.45;;;5.10;;
70216;SDS011;65567;55.684;37.570;2023-07-09T00:59:24;12.15;;;4.80;;
70216;SDS011;65567;55.684;37.570;2023-07-09T01:01:56;12.52;;;5.38;;
70216;SDS011;65567;55.684;37.570;2023-07-09T01:04:25;8.50;;;5.03;;
70216;SDS011;65567;55.684;37.570;2023-07-09T01:06:52;11.85;;;5.82;;
70216;SDS011;65567;55.684;37.570;2023-07-09T01:09:21;9.82;;;5.10;;
70216;SDS011;65567;55.684;37.570;2023-07-09T01:11:48;9.55;;;5.18;;
70216;SDS011;65567;55.684;37.570;2023-07-09T01:14:14;9.82;;;5.13;;
70216;SDS011;65567;55.684;37.570;2023-07-09T01:19:13;10.35;;;4.75;;
70216;SDS011;65567;55.684;37.570;2023-07-09T01:21:41;11.02;;;5.20;;
70216;SDS011;65567;55.684;37.570;2023-07-09T01:24:14;9.95;;;5.57;;
70216;SDS011;65567;55.684;37.570;2023-07-09T01:27:01;10.30;;;5.05;;
70216;SDS011;65567;55.684;37.570;2023-07-09T01:29:30;11.23;;;5.82;;
70216;SDS011;65567;55.684;37.570;2023-07-09T01:31:58;9.18;;;5.30;;
70216;SDS011;65567;55.684;37.570;2023-07-09T01:34:25;9.63;;;5.25;;
70216;SDS011;65567;55.684;37.570;2023-07-09T01:36:50;11.77;;;7.28;;
70216;SDS011;65567;55.684;37.570;2023-07-09T01:39:16;14.73;;;5.60;;
70216;SDS011;65567;55.684;37.570;2023-07-09T01:41:44;8.68;;;5.47;;
70216;SDS011;65567;55.684;37.570;2023-07-09T01:44:12;9.77;;;5.43;;
70216;SDS011;65567;55.684;37.570;2023-07-09T01:46:38;13.90;;;5.15;;
70216;SDS011;65567;55.684;37.570;2023-07-09T01:49:04;9.77;;;5.72;;
70216;SDS011;65567;55.684;37.570;2023-07-09T01:51:35;12.70;;;5.72;;
70216;SDS011;65567;55.684;37.570;2023-07-09T01:54:03;10.20;;;5.88;;
70216;SDS011;65567;55.684;37.570;2023-07-09T01:56:29;11.52;;;5.80;;
70216;SDS011;65567;55.684;37.570;2023-07-09T01:58:55;9.90;;;6.25;;
70216;SDS011;65567;55.684;37.570;2023-07-09T02:01:29;10.85;;;5.80;;
70216;SDS011;65567;55.684;37.570;2023-07-09T02:03:55;8.95;;;4.97;;
70216;SDS011;65567;55.684;37.570;2023-07-09T02:06:21;10.80;;;5.60;;
70216;SDS011;65567;55.684;37.570;2023-07-09T02:08:49;13.60;;;5.68;;
70216;SDS011;65567;55.684;37.570;2023-07-09T02:11:15;10.60;;;5.63;;
70216;SDS011;65567;55.684;37.570;2023-07-09T02:13:41;10.98;;;5.25;;
70216;SDS011;65567;55.684;37.570;2023-07-09T02:16:07;10.60;;;5.47;;
70216;SDS011;65567;55.684;37.570;2023-07-09T02:18:33;12.77;;;5.68;;
70216;SDS011;65567;55.684;37.570;2023-07-09T02:20:59;10.82;;;5.55;;
70216;SDS011;65567;55.684;37.570;2023-07-09T02:23:26;9.15;;;5.68;;
70216;SDS011;65567;55.684;37.570;2023-07-09T02:25:53;10.38;;;5.50;;
70216;SDS011;65567;55.684;37.570;2023-07-09T02:28:19;8.93;;;5.38;;
70216;SDS011;65567;55.684;37.570;2023-07-09T02:30:45;10.60;;;5.50;;
70216;SDS011;65567;55.684;37.570;2023-07-09T02:33:10;11.55;;;5.30;;
70216;SDS011;65567;55.684;37.570;2023-07-09T02:35:36;11.32;;;5.15;;
70216;SDS011;65567;55.684;37.570;2023-07-09T02:38:03;12.00;;;5.55;;
70216;SDS011;65567;55.684;37.570;2023-07-09T02:40:29;10.93;;;5.70;;
70216;SDS011;65567;55.684;37.570;2023-07-09T02:42:55;11.25;;;5.40;;
70216;SDS011;65567;55.684;37.570;2023-07-09T02:45:20;11.13;;;5.80;;
70216;SDS011;65567;55.684;37.570;2023-07-09T02:47:46;11.77;;;5.82;;
70216;SDS011;65567;55.684;37.570;2023-07-09T02:50:12;13.23;;;6.45;;
70216;SDS011;65567;55.684;37.570;2023-07-09T02:52:39;10.13;;;5.65;;
70216;SDS011;65567;55.684;37.570;2023-07-09T02:55:07;9.90;;;5.25;;
70216;SDS011;65567;55.684;37.570;2023-07-09T02:57:33;9.70;;;4.70;;
70216;SDS011;65567;55.684;37.570;2023-07-09T02:59:58;10.77;;;5.95;;
70216;SDS011;65567;55.684;37.570;2023-07-09T03:02:24;11.30;;;5.35;;
70216;SDS011;65567;55.684;37.570;2023-07-09T03:04:51;9.15;;;5.18;;
70216;SDS011;65567;55.684;37.570;2023-07-09T03:07:16;12.20;;;5.82;;
70216;SDS011;65567;55.684;37.570;2023-07-09T03:09:42;10.02;;;5.68;;
70216;SDS011;65567;55.684;37.570;2023-07-09T03:12:08;10.15;;;5.35;;
70216;SDS011;65567;55.684;37.570;2023-07-09T03:14:35;9.43;;;5.68;;
70216;SDS011;65567;55.684;37.570;2023-07-09T03:17:01;9.93;;;5.15;;
70216;SDS011;65567;55.684;37.570;2023-07-09T03:19:27;13.48;;;5.80;;
70216;SDS011;65567;55.684;37.570;2023-07-09T03:21:53;11.07;;;5.28;;
70216;SDS011;65567;55.684;37.570;2023-07-09T03:24:18;10.05;;;5.72;;
70216;SDS011;65567;55.684;37.570;2023-07-09T03:26:47;15.48;;;6.45;;
70216;SDS011;65567;55.684;37.570;2023-07-09T03:29:13;10.88;;;5.82;;
70216;SDS011;65567;55.684;37.570;2023-07-09T03:31:39;10.70;;;5.55;;
70216;SDS011;65567;55.684;37.570;2023-07-09T03:34:04;17.08;;;5.78;;
70216;SDS011;65567;55.684;37.570;2023-07-09T03:36:30;9.68;;;5.82;;
70216;SDS011;65567;55.684;37.570;2023-07-09T03:38:56;11.38;;;6.05;;
70216;SDS011;65567;55.684;37.570;2023-07-09T03:44:43;12.52;;;5.93;;
70216;SDS011;65567;55.684;37.570;2023-07-09T03:47:09;11.40;;;6.40;;
70216;SDS011;65567;55.684;37.570;2023-07-09T03:49:35;14.65;;;5.60;;
70216;SDS011;65567;55.684;37.570;2023-07-09T03:52:00;9.75;;;5.68;;
70216;SDS011;65567;55.684;37.570;2023-07-09T03:54:26;12.32;;;6.20;;
70216;SDS011;65567;55.684;37.570;2023-07-09T03:56:52;12.60;;;5.82;;
70216;SDS011;65567;55.684;37.570;2023-07-09T03:59:18;8.80;;;5.53;;
70216;SDS011;65567;55.684;37.570;2023-07-09T04:01:44;10.02;;;5.03;;
70216;SDS011;65567;55.684;37.570;2023-07-09T04:04:11;8.90;;;4.90;;
70216;SDS011;65567;55.684;37.570;2023-07-09T04:06:37;8.85;;;4.85;;
70216;SDS011;65567;55.684;37.570;2023-07-09T04:09:03;9.20;;;5.35;;
70216;SDS011;65567;55.684;37.570;2023-07-09T04:11:29;6.72;;;4.57;;
70216;SDS011;65567;55.684;37.570;2023-07-09T04:13:55;8.02;;;4.22;;
70216;SDS011;65567;55.684;37.570;2023-07-09T04:16:20;8.52;;;4.38;;
70216;SDS011;65567;55.684;37.570;2023-07-09T04:18:46;8.48;;;4.72;;
70216;SDS011;65567;55.684;37.570;2023-07-09T04:21:12;8.80;;;4.43;;
70216;SDS011;65567;55.684;37.570;2023-07-09T04:23:37;8.60;;;4.30;;
70216;SDS011;65567;55.684;37.570;2023-07-09T04:26:03;9.02;;;3.97;;
70216;SDS011;65567;55.684;37.570;2023-07-09T04:28:30;9.88;;;3.90;;
70216;SDS011;65567;55.684;37.570;2023-07-09T04:30:56;9.05;;;4.60;;
70216;SDS011;65567;55.684;37.570;2023-07-09T04:33:22;6.07;;;4.65;;
70216;SDS011;65567;55.684;37.570;2023-07-09T04:35:48;8.63;;;4.28;;
70216;SDS011;65567;55.684;37.570;2023-07-09T04:38:14;6.45;;;4.25;;
70216;SDS011;65567;55.684;37.570;2023-07-09T04:40:41;6.75;;;3.95;;
70216;SDS011;65567;55.684;37.570;2023-07-09T04:43:06;7.03;;;4.53;;
70216;SDS011;65567;55.684;37.570;2023-07-09T04:45:32;9.82;;;4.50;;
70216;SDS011;65567;55.684;37.570;2023-07-09T04:47:59;8.57;;;4.25;;
70216;SDS011;65567;55.684;37.570;2023-07-09T04:50:25;6.07;;;3.97;;
70216;SDS011;65567;55.684;37.570;2023-07-09T04:52:51;9.95;;;4.43;;
70216;SDS011;65567;55.684;37.570;2023-07-09T04:55:17;7.47;;;4.30;;
70216;SDS011;65567;55.684;37.570;2023-07-09T04:57:44;7.03;;;4.00;;
70216;SDS011;65567;55.684;37.570;2023-07-09T05:00:10;6.47;;;3.00;;
70216;SDS011;65567;55.684;37.570;2023-07-09T05:02:36;5.80;;;2.55;;
70216;SDS011;65567;55.684;37.570;2023-07-09T05:05:02;8.70;;;2.80;;
70216;SDS011;65567;55.684;37.570;2023-07-09T05:07:28;6.00;;;3.20;;
70216;SDS011;65567;55.684;37.570;2023-07-09T05:09:54;5.25;;;2.90;;
70216;SDS011;65567;55.684;37.570;2023-07-09T05:12:20;5.43;;;2.80;;
70216;SDS011;65567;55.684;37.570;2023-07-09T05:14:46;5.88;;;2.70;;
70216;SDS011;65567;55.684;37.570;2023-07-09T05:17:12;5.15;;;2.45;;
70216;SDS011;65567;55.684;37.570;2023-07-09T05:19:38;4.95;;;2.60;;
70216;SDS011;65567;55.684;37.570;2023-07-09T05:22:04;2.97;;;1.90;;
70216;SDS011;65567;55.684;37.570;2023-07-09T05:24:30;4.43;;;2.40;;
70216;SDS011;65567;55.684;37.570;2023-07-09T05:26:55;5.55;;;2.70;;
70216;SDS011;65567;55.684;37.570;2023-07-09T05:29:21;5.68;;;2.38;;
70216;SDS011;65567;55.684;37.570;2023-07-09T05:31:47;5.68;;;2.30;;
70216;SDS011;65567;55.684;37.570;2023-07-09T05:34:13;3.63;;;2.50;;
70216;SDS011;65567;55.684;37.570;2023-07-09T05:36:39;4.20;;;2.05;;
70216;SDS011;65567;55.684;37.570;2023-07-09T05:39:05;3.78;;;2.25;;
70216;SDS011;65567;55.684;37.570;2023-07-09T05:41:31;5.25;;;2.00;;
70216;SDS011;65567;55.684;37.570;2023-07-09T05:43:57;3.72;;;2.00;;
70216;SDS011;65567;55.684;37.570;2023-07-09T05:46:23;5.10;;;2.20;;
70216;SDS011;65567;55.684;37.570;2023-07-09T05:48:48;3.92;;;1.80;;
70216;SDS011;65567;55.684;37.570;2023-07-09T05:51:14;3.90;;;2.10;;
70216;SDS011;65567;55.684;37.570;2023-07-09T05:53:40;4.38;;;1.95;;
70216;SDS011;65567;55.684;37.570;2023-07-09T05:56:06;4.13;;;2.10;;
70216;SDS011;65567;55.684;37.570;2023-07-09T05:58:32;5.72;;;2.63;;
70216;SDS011;65567;55.684;37.570;2023-07-09T06:00:58;4.80;;;2.28;;
70216;SDS011;65567;55.684;37.570;2023-07-09T06:03:24;3.53;;;1.63;;
70216;SDS011;65567;55.684;37.570;2023-07-09T06:05:52;3.95;;;1.80;;
70216;SDS011;65567;55.684;37.570;2023-07-09T06:08:19;4.40;;;1.88;;
70216;SDS011;65567;55.684;37.570;2023-07-09T06:10:52;3.70;;;2.25;;
70216;SDS011;65567;55.684;37.570;2023-07-09T06:13:21;3.10;;;1.95;;
70216;SDS011;65567;55.684;37.570;2023-07-09T06:15:48;5.20;;;2.00;;
70216;SDS011;65567;55.684;37.570;2023-07-09T06:18:14;3.67;;;2.03;;
70216;SDS011;65567;55.684;37.570;2023-07-09T06:20:40;3.35;;;1.63;;
70216;SDS011;65567;55.684;37.570;2023-07-09T06:23:05;5.35;;;1.95;;
70216;SDS011;65567;55.684;37.570;2023-07-09T06:25:32;4.10;;;1.70;;
70216;SDS011;65567;55.684;37.570;2023-07-09T06:27:57;5.93;;;1.95;;
70216;SDS011;65567;55.684;37.570;2023-07-09T06:30:23;5.97;;;1.60;;
70216;SDS011;65567;55.684;37.570;2023-07-09T06:32:49;6.03;;;2.72;;
70216;SDS011;65567;55.684;37.570;2023-07-09T06:35:15;3.17;;;1.70;;
70216;SDS011;65567;55.684;37.570;2023-07-09T06:37:40;6.43;;;2.50;;
70216;SDS011;65567;55.684;37.570;2023-07-09T06:40:09;4.57;;;1.50;;
70216;SDS011;65567;55.684;37.570;2023-07-09T06:42:35;4.93;;;2.07;;
70216;SDS011;65567;55.684;37.570;2023-07-09T06:45:01;4.78;;;2.00;;
70216;SDS011;65567;55.684;37.570;2023-07-09T06:47:29;3.95;;;1.70;;
70216;SDS011;65567;55.684;37.570;2023-07-09T06:49:55;3.58;;;2.00;;
70216;SDS011;65567;55.684;37.570;2023-07-09T06:52:21;4.25;;;2.08;;
70216;SDS011;65567;55.684;37.570;2023-07-09T06:54:46;3.42;;;1.90;;
70216;SDS011;65567;55.684;37.570;2023-07-09T06:57:14;2.75;;;2.08;;
70216;SDS011;65567;55.684;37.570;2023-07-09T06:59:40;4.53;;;1.90;;
70216;SDS011;65567;55.684;37.570;2023-07-09T07:02:06;2.75;;;1.90;;
70216;SDS011;65567;55.684;37.570;2023-07-09T07:04:33;3.67;;;2.58;;
70216;SDS011;65567;55.684;37.570;2023-07-09T07:06:58;7.32;;;1.90;;
70216;SDS011;65567;55.684;37.570;2023-07-09T07:09:24;4.82;;;2.15;;
70216;SDS011;65567;55.684;37.570;2023-07-09T07:11:50;3.17;;;1.90;;
70216;SDS011;65567;55.684;37.570;2023-07-09T07:14:15;4.60;;;2.15;;
70216;SDS011;65567;55.684;37.570;2023-07-09T07:16:41;5.28;;;1.90;;
70216;SDS011;65567;55.684;37.570;2023-07-09T07:19:07;2.67;;;1.73;;
70216;SDS011;65567;55.684;37.570;2023-07-09T07:21:34;3.70;;;1.90;;
70216;SDS011;65567;55.684;37.570;2023-07-09T07:24:00;4.30;;;2.15;;
70216;SDS011;65567;55.684;37.570;2023-07-09T07:26:26;2.85;;;2.20;;
70216;SDS011;65567;55.684;37.570;2023-07-09T07:28:52;3.28;;;2.03;;
70216;SDS011;65567;55.684;37.570;2023-07-09T07:31:17;4.20;;;2.00;;
70216;SDS011;65567;55.684;37.570;2023-07-09T07:33:43;4.15;;;2.00;;
70216;SDS011;65567;55.684;37.570;2023-07-09T07:36:09;3.38;;;2.00;;
70216;SDS011;65567;55.684;37.570;2023-07-09T07:38:35;4.72;;;2.28;;
70216;SDS011;65567;55.684;37.570;2023-07-09T07:41:01;3.47;;;2.17;;
70216;SDS011;65567;55.684;37.570;2023-07-09T07:43:27;3.25;;;2.22;;
70216;SDS011;65567;55.684;37.570;2023-07-09T07:45:55;3.95;;;1.98;;
70216;SDS011;65567;55.684;37.570;2023-07-09T07:48:20;4.90;;;2.45;;
70216;SDS011;65567;55.684;37.570;2023-07-09T07:50:46;3.88;;;2.47;;
70216;SDS011;65567;55.684;37.570;2023-07-09T07:53:13;3.90;;;1.88;;
70216;SDS011;65567;55.684;37.570;2023-07-09T07:55:40;3.15;;;1.83;;
70216;SDS011;65567;55.684;37.570;2023-07-09T07:58:12;3.70;;;1.80;;
70216;SDS011;65567;55.684;37.570;2023-07-09T08:00:39;6.10;;;2.30;;
70216;SDS011;65567;55.684;37.570;2023-07-09T08:03:05;3.60;;;2.00;;
70216;SDS011;65567;55.684;37.570;2023-07-09T08:05:31;5.10;;;1.90;;
70216;SDS011;65567;55.684;37.570;2023-07-09T08:07:56;2.63;;;1.73;;
70216;SDS011;65567;55.684;37.570;2023-07-09T08:10:22;4.53;;;1.55;;
70216;SDS011;65567;55.684;37.570;2023-07-09T08:12:48;3.17;;;2.08;;
70216;SDS011;65567;55.684;37.570;2023-07-09T08:15:14;4.28;;;1.70;;
70216;SDS011;65567;55.684;37.570;2023-07-09T08:17:40;4.03;;;1.77;;
70216;SDS011;65567;55.684;37.570;2023-07-09T08:20:05;4.03;;;1.92;;
70216;SDS011;65567;55.684;37.570;2023-07-09T08:22:34;4.97;;;1.73;;
70216;SDS011;65567;55.684;37.570;2023-07-09T08:25:00;4.07;;;1.98;;
70216;SDS011;65567;55.684;37.570;2023-07-09T08:27:26;3.55;;;1.25;;
70216;SDS011;65567;55.684;37.570;2023-07-09T08:29:51;4.28;;;1.70;;
70216;SDS011;65567;55.684;37.570;2023-07-09T08:32:17;2.03;;;1.35;;
70216;SDS011;65567;55.684;37.570;2023-07-09T08:34:43;3.20;;;1.75;;
70216;SDS011;65567;55.684;37.570;2023-07-09T08:37:09;3.63;;;1.70;;
70216;SDS011;65567;55.684;37.570;2023-07-09T08:39:35;3.38;;;1.75;;
70216;SDS011;65567;55.684;37.570;2023-07-09T08:42:02;2.97;;;1.75;;
70216;SDS011;65567;55.684;37.570;2023-07-09T08:47:23;3.03;;;1.75;;
70216;SDS011;65567;55.684;37.570;2023-07-09T08:50:11;3.60;;;1.88;;
70216;SDS011;65567;55.684;37.570;2023-07-09T08:52:43;6.03;;;1.90;;
70216;SDS011;65567;55.684;37.570;2023-07-09T08:55:20;4.03;;;1.80;;
70216;SDS011;65567;55.684;37.570;2023-07-09T08:57:52;3.20;;;1.95;;
70216;SDS011;65567;55.684;37.570;2023-07-09T09:05:37;5.20;;;1.90;;
70216;SDS011;65567;55.684;37.570;2023-07-09T09:13:46;4.53;;;1.90;;
70216;SDS011;65567;55.684;37.570;2023-07-09T09:19:18;3.25;;;1.75;;
70216;SDS011;65567;55.684;37.570;2023-07-09T09:21:48;3.58;;;1.83;;
70216;SDS011;65567;55.684;37.570;2023-07-09T09:24:26;2.60;;;2.03;;
70216;SDS011;65567;55.684;37.570;2023-07-09T09:26:57;4.28;;;2.00;;
70216;SDS011;65567;55.684;37.570;2023-07-09T09:29:24;3.25;;;2.22;;
70216;SDS011;65567;55.684;37.570;2023-07-09T09:31:52;4.57;;;2.25;;
70216;SDS011;65567;55.684;37.570;2023-07-09T09:34:25;3.67;;;2.00;;
70216;SDS011;65567;55.684;37.570;2023-07-09T09:36:57;6.80;;;2.25;;
70216;SDS011;65567;55.684;37.570;2023-07-09T09:39:26;3.28;;;1.95;;
70216;SDS011;65567;55.684;37.570;2023-07-09T09:41:53;7.15;;;2.15;;
70216;SDS011;65567;55.684;37.570;2023-07-09T09:44:26;3.50;;;2.10;;
70216;SDS011;65567;55.684;37.570;2023-07-09T09:46:56;4.20;;;2.00;;
70216;SDS011;65567;55.684;37.570;2023-07-09T09:49:23;4.60;;;1.87;;
70216;SDS011;65567;55.684;37.570;2023-07-09T09:51:49;5.75;;;2.10;;
70216;SDS011;65567;55.684;37.570;2023-07-09T09:54:19;3.42;;;2.20;;
70216;SDS011;65567;55.684;37.570;2023-07-09T09:56:55;6.47;;;2.10;;
70216;SDS011;65567;55.684;37.570;2023-07-09T09:59:25;2.30;;;1.80;;
70216;SDS011;65567;55.684;37.570;2023-07-09T10:01:59;5.85;;;1.88;;
70216;SDS011;65567;55.684;37.570;2023-07-09T10:04:30;4.05;;;1.98;;
70216;SDS011;65567;55.684;37.570;2023-07-09T10:07:01;3.25;;;1.90;;
70216;SDS011;65567;55.684;37.570;2023-07-09T10:09:42;4.22;;;2.03;;
70216;SDS011;65567;55.684;37.570;2023-07-09T10:12:13;5.55;;;2.20;;
70216;SDS011;65567;55.684;37.570;2023-07-09T10:17:38;5.07;;;2.10;;
70216;SDS011;65567;55.684;37.570;2023-07-09T10:20:11;3.85;;;2.00;;
70216;SDS011;65567;55.684;37.570;2023-07-09T10:25:50;3.47;;;2.10;;
70216;SDS011;65567;55.684;37.570;2023-07-09T10:28:34;4.72;;;2.25;;
70216;SDS011;65567;55.684;37.570;2023-07-09T10:39:57;4.75;;;2.38;;
70216;SDS011;65567;55.684;37.570;2023-07-09T10:42:29;4.97;;;2.10;;
70216;SDS011;65567;55.684;37.570;2023-07-09T10:45:10;5.43;;;2.13;;
70216;SDS011;65567;55.684;37.570;2023-07-09T10:47:49;3.10;;;2.20;;
70216;SDS011;65567;55.684;37.570;2023-07-09T10:50:40;3.25;;;2.25;;
70216;SDS011;65567;55.684;37.570;2023-07-09T10:56:11;3.30;;;2.20;;
70216;SDS011;65567;55.684;37.570;2023-07-09T11:01:38;3.17;;;2.05;;
70216;SDS011;65567;55.684;37.570;2023-07-09T11:04:20;3.80;;;1.85;;
70216;SDS011;65567;55.684;37.570;2023-07-09T11:06:55;4.25;;;2.30;;
70216;SDS011;65567;55.684;37.570;2023-07-09T11:09:24;5.18;;;2.42;;
70216;SDS011;65567;55.684;37.570;2023-07-09T11:11:59;4.95;;;2.05;;
70216;SDS011;65567;55.684;37.570;2023-07-09T11:14:59;4.50;;;2.30;;
70216;SDS011;65567;55.684;37.570;2023-07-09T11:17:29;4.90;;;2.50;;
70216;SDS011;65567;55.684;37.570;2023-07-09T11:19:57;5.68;;;1.98;;
70216;SDS011;65567;55.684;37.570;2023-07-09T11:22:26;4.60;;;2.40;;
70216;SDS011;65567;55.684;37.570;2023-07-09T11:25:13;5.55;;;1.88;;
70216;SDS011;65567;55.684;37.570;2023-07-09T11:27:52;4.38;;;2.08;;
70216;SDS011;65567;55.684;37.570;2023-07-09T11:30:26;4.63;;;2.15;;
70216;SDS011;65567;55.684;37.570;2023-07-09T11:32:56;6.30;;;2.05;;
70216;SDS011;65567;55.684;37.570;2023-07-09T11:35:25;5.15;;;2.30;;
70216;SDS011;65567;55.684;37.570;2023-07-09T11:37:52;4.88;;;2.40;;
70216;SDS011;65567;55.684;37.570;2023-07-09T11:40:20;4.88;;;2.15;;
70216;SDS011;65567;55.684;37.570;2023-07-09T11:42:51;7.15;;;2.40;;
70216;SDS011;65567;55.684;37.570;2023-07-09T11:45:23;3.97;;;2.10;;
70216;SDS011;65567;55.684;37.570;2023-07-09T11:47:55;5.20;;;1.98;;
70216;SDS011;65567;55.684;37.570;2023-07-09T11:50:34;5.78;;;1.70;;
70216;SDS011;65567;55.684;37.570;2023-07-09T11:56:07;3.03;;;1.60;;
70216;SDS011;65567;55.684;37.570;2023-07-09T11:58:34;2.85;;;1.70;;
70216;SDS011;65567;55.684;37.570;2023-07-09T12:01:00;4.07;;;1.70;;
70216;SDS011;65567;55.684;37.570;2023-07-09T12:03:34;3.72;;;2.10;;
70216;SDS011;65567;55.684;37.570;2023-07-09T12:06:07;5.53;;;2.00;;
70216;SDS011;65567;55.684;37.570;2023-07-09T12:08:49;3.67;;;2.00;;
70216;SDS011;65567;55.684;37.570;2023-07-09T12:11:29;4.53;;;1.60;;
70216;SDS011;65567;55.684;37.570;2023-07-09T12:14:08;3.10;;;1.65;;
70216;SDS011;65567;55.684;37.570;2023-07-09T12:16:40;5.05;;;2.08;;
70216;SDS011;65567;55.684;37.570;2023-07-09T12:19:10;4.00;;;2.20;;
70216;SDS011;65567;55.684;37.570;2023-07-09T12:21:38;3.58;;;1.95;;
70216;SDS011;65567;55.684;37.570;2023-07-09T12:24:18;3.13;;;1.90;;
70216;SDS011;65567;55.684;37.570;2023-07-09T12:27:02;5.18;;;1.90;;
70216;SDS011;65567;55.684;37.570;2023-07-09T12:29:41;12.50;;;3.88;;
70216;SDS011;65567;55.684;37.570;2023-07-09T12:32:11;4.32;;;2.20;;
70216;SDS011;65567;55.684;37.570;2023-07-09T12:34:41;5.32;;;2.30;;
70216;SDS011;65567;55.684;37.570;2023-07-09T12:37:08;4.72;;;2.08;;
70216;SDS011;65567;55.684;37.570;2023-07-09T12:39:39;3.13;;;1.60;;
70216;SDS011;65567;55.684;37.570;2023-07-09T12:42:05;4.25;;;2.10;;
70216;SDS011;65567;55.684;37.570;2023-07-09T12:44:39;6.75;;;2.25;;
70216;SDS011;65567;55.684;37.570;2023-07-09T12:47:06;6.93;;;2.10;;
70216;SDS011;65567;55.684;37.570;2023-07-09T12:49:41;6.13;;;1.73;;
70216;SDS011;65567;55.684;37.570;2023-07-09T12:52:17;4.75;;;2.35;;
70216;SDS011;65567;55.684;37.570;2023-07-09T12:55:03;5.22;;;2.08;;
70216;SDS011;65567;55.684;37.570;2023-07-09T12:57:29;7.22;;;2.10;;
70216;SDS011;65567;55.684;37.570;2023-07-09T12:59:55;3.92;;;2.10;;
70216;SDS011;65567;55.684;37.570;2023-07-09T13:04:48;5.40;;;2.40;;
70216;SDS011;65567;55.684;37.570;2023-07-09T13:07:27;6.13;;;2.30;;
70216;SDS011;65567;55.684;37.570;2023-07-09T13:10:04;4.95;;;2.03;;
70216;SDS011;65567;55.684;37.570;2023-07-09T13:12:40;5.68;;;2.20;;
70216;SDS011;65567;55.684;37.570;2023-07-09T13:15:18;6.00;;;2.25;;
70216;SDS011;65567;55.684;37.570;2023-07-09T13:17:47;4.80;;;2.20;;
70216;SDS011;65567;55.684;37.570;2023-07-09T13:20:12;4.45;;;2.00;;
70216;SDS011;65567;55.684;37.570;2023-07-09T13:22:45;5.28;;;2.10;;
70216;SDS011;65567;55.684;37.570;2023-07-09T13:25:10;6.72;;;2.45;;
70216;SDS011;65567;55.684;37.570;2023-07-09T13:27:36;4.10;;;2.47;;
70216;SDS011;65567;55.684;37.570;2023-07-09T13:30:02;6.10;;;2.60;;
70216;SDS011;65567;55.684;37.570;2023-07-09T13:32:28;6.15;;;2.53;;
70216;SDS011;65567;55.684;37.570;2023-07-09T13:35:14;5.80;;;2.30;;
70216;SDS011;65567;55.684;37.570;2023-07-09T13:38:15;6.13;;;2.45;;
70216;SDS011;65567;55.684;37.570;2023-07-09T13:40:43;8.85;;;2.28;;
70216;SDS011;65567;55.684;37.570;2023-07-09T13:43:11;4.45;;;2.13;;
70216;SDS011;65567;55.684;37.570;2023-07-09T13:45:38;2.70;;;2.00;;
70216;SDS011;65567;55.684;37.570;2023-07-09T13:48:05;4.65;;;2.17;;
70216;SDS011;65567;55.684;37.570;2023-07-09T13:50:38;4.93;;;2.45;;
70216;SDS011;65567;55.684;37.570;2023-07-09T13:53:05;7.28;;;2.20;;
70216;SDS011;65567;55.684;37.570;2023-07-09T13:55:38;3.88;;;2.05;;
70216;SDS011;65567;55.684;37.570;2023-07-09T13:58:07;5.22;;;2.10;;
70216;SDS011;65567;55.684;37.570;2023-07-09T14:00:35;4.25;;;2.20;;
70216;SDS011;65567;55.684;37.570;2023-07-09T14:03:01;4.55;;;2.35;;
70216;SDS011;65567;55.684;37.570;2023-07-09T14:05:28;3.50;;;2.30;;
70216;SDS011;65567;55.684;37.570;2023-07-09T14:07:53;5.05;;;2.13;;
70216;SDS011;65567;55.684;37.570;2023-07-09T14:10:19;5.57;;;2.55;;
70216;SDS011;65567;55.684;37.570;2023-07-09T14:12:46;7.40;;;2.30;;
70216;SDS011;65567;55.684;37.570;2023-07-09T14:15:14;3.10;;;2.28;;
70216;SDS011;65567;55.684;37.570;2023-07-09T14:17:42;4.05;;;2.30;;
70216;SDS011;65567;55.684;37.570;2023-07-09T14:20:17;7.20;;;2.38;;
70216;SDS011;65567;55.684;37.570;2023-07-09T14:22:43;3.25;;;1.83;;
70216;SDS011;65567;55.684;37.570;2023-07-09T14:25:20;4.80;;;2.13;;
70216;SDS011;65567;55.684;37.570;2023-07-09T14:27:51;5.22;;;1.98;;
70216;SDS011;65567;55.684;37.570;2023-07-09T14:30:24;3.42;;;1.95;;
70216;SDS011;65567;55.684;37.570;2023-07-09T14:32:50;5.57;;;2.00;;
70216;SDS011;65567;55.684;37.570;2023-07-09T14:35:18;5.32;;;1.98;;
70216;SDS011;65567;55.684;37.570;2023-07-09T14:37:49;4.93;;;2.30;;
70216;SDS011;65567;55.684;37.570;2023-07-09T14:40:17;3.17;;;1.95;;
70216;SDS011;65567;55.684;37.570;2023-07-09T14:42:45;5.10;;;2.30;;
70216;SDS011;65567;55.684;37.570;2023-07-09T14:45:25;3.92;;;1.98;;
70216;SDS011;65567;55.684;37.570;2023-07-09T14:47:53;2.70;;;2.00;;
70216;SDS011;65567;55.684;37.570;2023-07-09T14:50:20;4.95;;;2.33;;
70216;SDS011;65567;55.684;37.570;2023-07-09T14:52:48;3.58;;;1.98;;
70216;SDS011;65567;55.684;37.570;2023-07-09T14:55:15;5.32;;;2.00;;
70216;SDS011;65567;55.684;37.570;2023-07-09T14:57:42;4.32;;;2.30;;
70216;SDS011;65567;55.684;37.570;2023-07-09T15:00:27;4.60;;;2.33;;
70216;SDS011;65567;55.684;37.570;2023-07-09T15:02:53;2.90;;;2.05;;
70216;SDS011;65567;55.684;37.570;2023-07-09T15:05:23;4.97;;;2.13;;
70216;SDS011;65567;55.684;37.570;2023-07-09T15:07:50;3.67;;;2.00;;
70216;SDS011;65567;55.684;37.570;2023-07-09T15:10:23;4.18;;;2.03;;
70216;SDS011;65567;55.684;37.570;2023-07-09T15:12:52;3.05;;;2.17;;
70216;SDS011;65567;55.684;37.570;2023-07-09T15:15:25;3.55;;;2.20;;
70216;SDS011;65567;55.684;37.570;2023-07-09T15:17:54;4.10;;;2.40;;
70216;SDS011;65567;55.684;37.570;2023-07-09T15:20:25;3.50;;;1.83;;
70216;SDS011;65567;55.684;37.570;2023-07-09T15:22:53;4.20;;;1.90;;
70216;SDS011;65567;55.684;37.570;2023-07-09T15:25:23;3.88;;;2.00;;
70216;SDS011;65567;55.684;37.570;2023-07-09T15:27:50;2.85;;;1.80;;
70216;SDS011;65567;55.684;37.570;2023-07-09T15:30:18;4.90;;;2.80;;
70216;SDS011;65567;55.684;37.570;2023-07-09T15:32:45;5.65;;;2.47;;
70216;SDS011;65567;55.684;37.570;2023-07-09T15:35:12;5.72;;;2.30;;